createdAt,value
2018-04-19T00:08:28.453Z,14.09
2018-04-19T00:10:55.990Z,14.16
2018-04-19T00:13:23.567Z,14.13
2018-04-19T00:15:51.166Z,14.04
2018-04-19T00:18:18.831Z,14.00
2018-04-19T00:20:46.453Z,13.97
2018-04-19T00:23:14.021Z,13.93
2018-04-19T00:25:41.571Z,13.76
2018-04-19T00:28:09.129Z,13.79
2018-04-19T00:30:36.754Z,13.78
2018-04-19T00:33:04.354Z,13.74
2018-04-19T00:35:31.940Z,13.82
2018-04-19T00:37:59.480Z,13.83
2018-04-19T00:40:27.049Z,13.86
2018-04-19T00:42:54.634Z,13.79
2018-04-19T00:45:22.221Z,13.85
2018-04-19T00:47:49.777Z,13.95
2018-04-19T00:50:17.374Z,13.97
2018-04-19T00:52:56.720Z,13.86
2018-04-19T00:55:24.296Z,13.75
2018-04-19T00:57:52.184Z,13.81
2018-04-19T01:00:19.738Z,13.81
2018-04-19T01:02:47.288Z,13.77
2018-04-19T01:05:14.892Z,13.77
2018-04-19T01:07:42.473Z,13.75
2018-04-19T01:10:10.038Z,13.71
2018-04-19T01:12:37.636Z,13.81
2018-04-19T01:15:05.210Z,13.74
2018-04-19T01:17:32.777Z,13.81
2018-04-19T01:20:00.351Z,13.83
2018-04-19T01:22:27.901Z,13.82
2018-04-19T01:24:55.473Z,13.84
2018-04-19T01:27:23.053Z,13.88
2018-04-19T01:29:50.669Z,13.97
2018-04-19T01:32:18.226Z,14.08
2018-04-19T01:34:45.778Z,13.97
2018-04-19T01:37:13.365Z,13.89
2018-04-19T01:39:40.934Z,13.87
2018-04-19T01:42:08.531Z,13.93
2018-04-19T01:44:36.087Z,13.86
2018-04-19T01:47:03.701Z,13.84
2018-04-19T01:49:31.265Z,13.79
2018-04-19T01:51:58.815Z,13.93
2018-04-19T01:54:26.426Z,14.09
2018-04-19T01:56:54.438Z,14.01
2018-04-19T01:59:22.018Z,14.00
2018-04-19T02:02:06.393Z,13.97
2018-04-19T02:04:34.004Z,14.05
2018-04-19T02:07:01.576Z,13.98
2018-04-19T02:09:29.144Z,13.93
2018-04-19T02:11:56.746Z,13.80
2018-04-19T02:14:24.381Z,13.64
2018-04-19T02:16:51.981Z,13.57
2018-04-19T02:19:19.536Z,13.53
2018-04-19T02:21:47.113Z,13.56
2018-04-19T02:24:14.683Z,13.62
2018-04-19T02:26:42.275Z,13.61
2018-04-19T02:29:09.827Z,13.58
2018-04-19T02:31:37.401Z,13.48
2018-04-19T02:34:04.968Z,13.43
2018-04-19T02:36:32.689Z,13.41
2018-04-19T02:39:00.283Z,13.37
2018-04-19T02:41:27.846Z,13.37
2018-04-19T02:43:55.448Z,13.37
2018-04-19T02:46:23.004Z,13.38
2018-04-19T02:48:50.571Z,13.39
2018-04-19T02:51:18.152Z,13.44
2018-04-19T02:53:45.736Z,13.41
2018-04-19T02:56:13.316Z,13.46
2018-04-19T02:58:40.897Z,13.52
2018-04-19T03:01:08.493Z,13.47
2018-04-19T03:03:36.041Z,13.43
2018-04-19T03:06:03.628Z,13.40
2018-04-19T03:08:31.227Z,13.34
2018-04-19T03:10:58.922Z,13.30
2018-04-19T03:13:26.511Z,13.26
2018-04-19T03:15:54.365Z,13.28
2018-04-19T03:18:21.936Z,13.27
2018-04-19T03:20:49.518Z,13.30
2018-04-19T03:23:17.941Z,13.35
2018-04-19T03:25:45.537Z,13.32
2018-04-19T03:28:13.122Z,13.28
2018-04-19T03:30:40.704Z,13.33
2018-04-19T03:33:08.260Z,13.22
2018-04-19T03:35:35.795Z,13.17
2018-04-19T03:38:03.386Z,13.14
2018-04-19T03:40:30.962Z,13.15
2018-04-19T03:42:58.692Z,13.10
2018-04-19T03:45:26.251Z,13.07
2018-04-19T03:47:53.885Z,13.04
2018-04-19T03:50:21.445Z,13.01
2018-04-19T03:52:49.039Z,12.89
2018-04-19T03:55:16.627Z,12.79
2018-04-19T03:57:44.289Z,12.74
2018-04-19T04:00:11.854Z,12.75
2018-04-19T04:02:39.433Z,12.73
2018-04-19T04:05:06.983Z,12.71
2018-04-19T04:07:34.594Z,12.68
2018-04-19T04:10:02.221Z,12.65
2018-04-19T04:12:29.784Z,12.59
2018-04-19T04:14:57.352Z,12.50
2018-04-19T04:17:36.603Z,12.42
2018-04-19T04:23:27.213Z,12.42
2018-04-19T04:25:54.810Z,12.34
2018-04-19T04:28:22.382Z,12.38
2018-04-19T04:30:49.937Z,12.35
2018-04-19T04:33:17.619Z,12.37
2018-04-19T04:35:45.184Z,12.37
2018-04-19T04:38:12.792Z,12.33
2018-04-19T04:40:40.361Z,12.30
2018-04-19T04:43:07.899Z,12.36
2018-04-19T04:45:35.503Z,12.41
2018-04-19T04:48:03.065Z,12.40
2018-04-19T04:50:30.679Z,12.32
2018-04-19T04:52:58.251Z,12.34
2018-04-19T04:55:25.835Z,12.34
2018-04-19T04:57:53.441Z,12.33
2018-04-19T05:00:21.066Z,12.41
2018-04-19T05:02:49.616Z,12.46
2018-04-19T05:05:17.268Z,12.48
2018-04-19T05:07:44.833Z,12.46
2018-04-19T05:10:12.406Z,12.44
2018-04-19T05:12:40.006Z,12.48
2018-04-19T05:15:07.616Z,12.51
2018-04-19T05:17:35.277Z,12.58
2018-04-19T05:20:02.945Z,12.69
2018-04-19T05:22:30.532Z,12.69
2018-04-19T05:24:58.083Z,12.80
2018-04-19T05:27:25.646Z,12.89
2018-04-19T05:29:53.206Z,12.96
2018-04-19T05:32:20.780Z,13.08
2018-04-19T05:34:48.363Z,13.17
2018-04-19T05:37:15.978Z,13.23
2018-04-19T05:39:43.532Z,13.33
2018-04-19T05:42:11.134Z,13.46
2018-04-19T05:44:38.698Z,13.47
2018-04-19T05:47:06.256Z,13.52
2018-04-19T05:49:33.809Z,13.62
2018-04-19T05:52:01.392Z,13.86
2018-04-19T05:54:28.950Z,14.34
2018-04-19T05:56:56.525Z,15.17
2018-04-19T05:59:24.083Z,15.70
2018-04-19T06:01:51.690Z,16.78
2018-04-19T06:04:19.317Z,17.71
2018-04-19T06:06:46.870Z,18.67
2018-04-19T06:09:14.463Z,19.06
2018-04-19T06:11:42.046Z,19.27
2018-04-19T06:14:09.614Z,19.48
2018-04-19T06:16:37.170Z,20.20
2018-04-19T06:19:04.788Z,20.42
2018-04-19T06:21:32.347Z,20.69
2018-04-19T06:23:59.914Z,21.20
2018-04-19T06:26:27.474Z,21.08
2018-04-19T06:28:55.063Z,20.95
2018-04-19T06:31:22.606Z,21.22
2018-04-19T06:33:50.174Z,21.22
2018-04-19T06:36:17.733Z,22.18
2018-04-19T06:38:45.289Z,21.59
2018-04-19T06:41:12.846Z,22.40
2018-04-19T06:43:40.505Z,22.29
2018-04-19T06:46:08.060Z,22.69
2018-04-19T06:48:35.639Z,22.15
2018-04-19T06:51:03.181Z,21.83
2018-04-19T06:53:30.727Z,22.45
2018-04-19T06:55:58.314Z,22.08
2018-04-19T06:58:25.849Z,21.99
2018-04-19T07:00:53.401Z,22.14
2018-04-19T07:03:20.984Z,21.52
2018-04-19T07:05:48.558Z,21.97
2018-04-19T07:08:16.145Z,21.65
2018-04-19T07:10:43.705Z,21.67
2018-04-19T07:13:11.263Z,21.16
2018-04-19T07:15:38.805Z,21.09
2018-04-19T07:18:06.667Z,21.18
2018-04-19T07:20:34.220Z,21.47
2018-04-19T07:23:01.830Z,21.85
2018-04-19T07:25:29.368Z,22.13
2018-04-19T07:27:56.944Z,22.15
2018-04-19T07:30:24.528Z,22.34
2018-04-19T07:32:52.089Z,22.67
2018-04-19T07:35:19.716Z,22.64
2018-04-19T07:37:47.278Z,23.79
2018-04-19T07:40:14.839Z,24.17
2018-04-19T07:42:42.386Z,24.12
2018-04-19T07:45:09.958Z,24.14
2018-04-19T07:47:37.518Z,24.12
2018-04-19T07:50:05.072Z,24.26
2018-04-19T07:52:32.628Z,24.33
2018-04-19T07:55:00.179Z,24.72
2018-04-19T07:57:27.760Z,24.50
2018-04-19T07:59:55.326Z,25.02
2018-04-19T08:02:22.887Z,24.87
2018-04-19T08:04:50.456Z,25.15
2018-04-19T08:07:18.166Z,24.77
2018-04-19T08:09:45.746Z,25.43
2018-04-19T08:12:13.309Z,25.92
2018-04-19T08:14:40.897Z,25.35
2018-04-19T08:17:08.470Z,25.65
2018-04-19T08:19:36.155Z,25.47
2018-04-19T08:22:03.717Z,25.86
2018-04-19T08:24:31.304Z,25.21
2018-04-19T08:26:58.862Z,25.03
2018-04-19T08:29:26.802Z,25.18
2018-04-19T08:31:54.386Z,24.77
2018-04-19T08:34:21.923Z,24.56
2018-04-19T08:36:49.544Z,24.34
2018-04-19T08:39:17.104Z,24.66
2018-04-19T08:41:44.661Z,24.75
2018-04-19T08:44:12.233Z,24.62
2018-04-19T08:46:39.786Z,24.44
2018-04-19T08:49:07.352Z,24.79
2018-04-19T08:51:34.906Z,24.92
2018-04-19T08:54:02.496Z,24.69
2018-04-19T08:56:30.060Z,24.63
2018-04-19T08:58:57.617Z,24.74
2018-04-19T09:01:25.173Z,24.31
2018-04-19T09:03:52.757Z,24.28
2018-04-19T09:06:20.310Z,24.06
2018-04-19T09:08:47.882Z,24.34
2018-04-19T09:11:15.441Z,23.94
2018-04-19T09:13:43.004Z,24.04
2018-04-19T09:16:10.549Z,23.85
2018-04-19T09:18:38.130Z,23.79
2018-04-19T09:21:05.703Z,23.89
2018-04-19T09:23:33.272Z,23.97
2018-04-19T09:26:00.829Z,24.19
2018-04-19T09:28:28.419Z,24.08
2018-04-19T09:30:55.976Z,24.18
2018-04-19T09:33:23.648Z,24.11
2018-04-19T09:35:51.230Z,24.20
2018-04-19T09:38:18.811Z,24.46
2018-04-19T09:40:46.376Z,24.13
2018-04-19T09:43:13.932Z,24.14
2018-04-19T09:45:41.493Z,24.09
2018-04-19T09:48:09.053Z,24.31
2018-04-19T09:50:36.665Z,24.37
2018-04-19T09:53:04.299Z,24.07
2018-04-19T09:55:31.887Z,24.44
2018-04-19T09:58:10.355Z,24.56
2018-04-19T10:00:43.563Z,24.58
2018-04-19T10:03:16.683Z,24.28
2018-04-19T10:05:48.059Z,24.46
2018-04-19T10:08:15.615Z,24.41
2018-04-19T10:10:43.154Z,24.22
2018-04-19T10:13:10.709Z,24.48
2018-04-19T10:15:38.323Z,24.51
2018-04-19T10:18:05.885Z,24.48
2018-04-19T10:20:33.451Z,24.62
2018-04-19T10:23:01.041Z,24.45
2018-04-19T10:25:28.625Z,24.56
2018-04-19T10:27:56.205Z,24.64
2018-04-19T10:30:23.776Z,24.78
2018-04-19T10:32:51.318Z,24.74
2018-04-19T10:35:18.874Z,24.89
2018-04-19T10:37:46.433Z,25.04
2018-04-19T10:40:13.981Z,25.04
2018-04-19T10:42:41.553Z,24.96
2018-04-19T10:45:09.144Z,24.96
2018-04-19T10:47:36.720Z,24.94
2018-04-19T10:50:04.331Z,24.90
2018-04-19T10:52:31.881Z,25.09
2018-04-19T10:54:59.448Z,25.07
2018-04-19T10:57:27.005Z,24.91
2018-04-19T10:59:54.546Z,25.06
2018-04-19T11:02:22.127Z,24.86
2018-04-19T11:04:49.676Z,25.07
2018-04-19T11:07:17.245Z,25.05
2018-04-19T11:09:44.808Z,25.02
2018-04-19T11:12:12.361Z,25.14
2018-04-19T11:14:39.924Z,25.12
2018-04-19T11:17:07.484Z,25.11
2018-04-19T11:19:35.080Z,25.22
2018-04-19T11:22:02.642Z,25.21
2018-04-19T11:24:30.197Z,25.10
2018-04-19T11:26:57.752Z,25.31
2018-04-19T11:29:25.366Z,25.28
2018-04-19T11:31:52.918Z,25.45
2018-04-19T11:34:20.513Z,25.39
2018-04-19T11:36:48.057Z,25.24
2018-04-19T11:39:15.615Z,25.43
2018-04-19T11:41:43.178Z,25.29
2018-04-19T11:44:10.776Z,25.44
2018-04-19T11:46:38.343Z,25.56
2018-04-19T11:49:05.915Z,25.57
2018-04-19T11:51:33.479Z,25.66
2018-04-19T11:54:01.032Z,25.76
2018-04-19T11:56:28.603Z,25.78
2018-04-19T11:58:56.164Z,25.65
2018-04-19T12:01:23.721Z,25.61
2018-04-19T12:03:51.277Z,25.63
2018-04-19T12:06:18.805Z,25.54
2018-04-19T12:08:46.361Z,25.47
2018-04-19T12:11:13.921Z,25.61
2018-04-19T12:13:41.480Z,25.54
2018-04-19T12:16:09.033Z,25.65
2018-04-19T12:18:36.578Z,25.70
2018-04-19T12:21:04.143Z,25.70
2018-04-19T12:23:31.686Z,25.80
2018-04-19T12:25:59.252Z,25.85
2018-04-19T12:28:26.841Z,25.82
2018-04-19T12:30:54.406Z,25.74
2018-04-19T12:33:21.985Z,25.81
2018-04-19T12:35:49.579Z,25.57
2018-04-19T12:38:17.145Z,25.64
2018-04-19T12:40:44.723Z,25.73
2018-04-19T12:43:12.284Z,25.80
2018-04-19T12:45:39.821Z,25.73
2018-04-19T12:48:07.421Z,25.79
2018-04-19T12:50:34.959Z,25.73
2018-04-19T12:53:02.521Z,25.60
2018-04-19T12:55:30.061Z,25.80
2018-04-19T12:57:57.624Z,25.95
2018-04-19T13:00:25.188Z,25.92
2018-04-19T13:02:52.771Z,25.85
2018-04-19T13:05:20.342Z,25.90
2018-04-19T13:07:47.887Z,25.89
2018-04-19T13:10:15.447Z,25.98
2018-04-19T13:12:43.012Z,26.06
2018-04-19T13:15:10.569Z,25.81
2018-04-19T13:17:38.275Z,25.79
2018-04-19T13:20:05.894Z,25.89
2018-04-19T13:22:33.452Z,25.93
2018-04-19T13:25:01.048Z,25.94
2018-04-19T13:27:28.594Z,26.03
2018-04-19T13:29:56.161Z,25.88
2018-04-19T13:32:23.810Z,25.98
2018-04-19T13:34:51.617Z,26.01
2018-04-19T13:37:19.207Z,26.16
2018-04-19T13:39:46.782Z,26.07
2018-04-19T13:42:14.391Z,25.67
2018-04-19T13:44:41.966Z,25.88
2018-04-19T13:47:09.513Z,25.93
2018-04-19T13:49:37.149Z,25.84
2018-04-19T13:52:04.683Z,25.85
2018-04-19T13:54:32.268Z,25.90
2018-04-19T13:56:59.858Z,25.83
2018-04-19T13:59:27.429Z,26.05
2018-04-19T14:01:55.082Z,25.83
2018-04-19T14:04:22.620Z,25.93
2018-04-19T14:06:50.183Z,26.01
2018-04-19T14:09:17.782Z,26.10
2018-04-19T14:11:45.346Z,25.96
2018-04-19T14:14:12.945Z,26.10
2018-04-19T14:16:40.500Z,25.96
2018-04-19T14:19:08.054Z,25.88
2018-04-19T14:21:35.619Z,25.83
2018-04-19T14:24:03.201Z,25.76
2018-04-19T14:26:30.776Z,25.83
2018-04-19T14:28:58.322Z,25.88
2018-04-19T14:31:25.870Z,25.83
2018-04-19T14:33:53.456Z,25.79
2018-04-19T14:36:21.032Z,25.79
2018-04-19T14:38:48.590Z,25.80
2018-04-19T14:41:16.154Z,25.71
2018-04-19T14:43:43.720Z,25.62
2018-04-19T14:46:11.292Z,25.70
2018-04-19T14:48:38.867Z,25.64
2018-04-19T14:51:06.437Z,25.68
2018-04-19T14:53:34.040Z,25.63
2018-04-19T14:56:01.594Z,25.56
2018-04-19T14:58:29.157Z,25.51
2018-04-19T15:00:56.729Z,25.26
2018-04-19T15:03:24.655Z,25.34
2018-04-19T15:05:52.256Z,25.25
2018-04-19T15:08:20.011Z,25.47
2018-04-19T15:10:47.586Z,25.22
2018-04-19T15:13:15.221Z,25.35
2018-04-19T15:15:42.738Z,25.34
2018-04-19T15:18:10.295Z,25.31
2018-04-19T15:20:37.857Z,25.26
2018-04-19T15:23:05.417Z,25.07
2018-04-19T15:25:33.238Z,25.12
2018-04-19T15:28:00.804Z,24.88
2018-04-19T15:30:28.367Z,25.13
2018-04-19T15:32:55.938Z,25.20
2018-04-19T15:35:23.975Z,25.20
2018-04-19T15:37:51.539Z,25.22
2018-04-19T15:40:19.109Z,25.13
2018-04-19T15:42:46.684Z,25.08
2018-04-19T15:45:14.244Z,25.13
2018-04-19T15:47:41.796Z,24.96
2018-04-19T15:50:09.366Z,24.97
2018-04-19T15:52:36.916Z,24.94
2018-04-19T15:55:04.545Z,24.95
2018-04-19T15:57:32.090Z,24.92
2018-04-19T15:59:59.660Z,24.68
2018-04-19T16:02:27.279Z,24.69
2018-04-19T16:04:54.872Z,24.58
2018-04-19T16:07:22.482Z,24.78
2018-04-19T16:09:50.087Z,24.71
2018-04-19T16:12:17.639Z,24.64
2018-04-19T16:14:45.232Z,24.61
2018-04-19T16:17:12.832Z,24.64
2018-04-19T16:19:40.378Z,24.57
2018-04-19T16:22:07.940Z,24.67
2018-04-19T16:24:35.568Z,24.63
2018-04-19T16:27:03.647Z,24.51
2018-04-19T16:29:31.492Z,24.31
2018-04-19T16:31:59.049Z,24.37
2018-04-19T16:34:26.657Z,24.33
2018-04-19T16:36:54.206Z,24.35
2018-04-19T16:39:21.791Z,24.25
2018-04-19T16:41:49.362Z,24.10
2018-04-19T16:44:16.933Z,24.01
2018-04-19T16:46:44.493Z,24.13
2018-04-19T16:49:12.100Z,23.88
2018-04-19T16:51:39.680Z,23.93
2018-04-19T16:54:07.260Z,24.00
2018-04-19T16:56:35.030Z,23.92
2018-04-19T16:59:02.851Z,23.82
2018-04-19T17:01:30.415Z,23.73
2018-04-19T17:03:57.983Z,23.71
2018-04-19T17:06:25.650Z,23.65
2018-04-19T17:08:53.365Z,23.71
2018-04-19T17:11:20.949Z,23.50
2018-04-19T17:13:48.524Z,23.41
2018-04-19T17:16:16.133Z,23.40
2018-04-19T17:18:43.674Z,23.40
2018-04-19T17:21:11.228Z,23.38
2018-04-19T17:23:38.865Z,23.40
2018-04-19T17:26:06.622Z,23.33
2018-04-19T17:28:34.165Z,23.28
2018-04-19T17:31:01.888Z,23.20
2018-04-19T17:33:29.656Z,23.16
2018-04-19T17:35:57.215Z,23.00
2018-04-19T17:38:24.805Z,22.86
2018-04-19T17:40:52.391Z,22.93
2018-04-19T17:43:20.050Z,22.90
2018-04-19T17:45:47.605Z,22.82
2018-04-19T17:48:15.154Z,22.77
2018-04-19T17:50:42.988Z,22.75
2018-04-19T17:53:10.745Z,22.80
2018-04-19T17:55:38.305Z,22.77
2018-04-19T17:58:05.973Z,22.71
2018-04-19T18:00:33.690Z,22.64
2018-04-19T18:03:01.233Z,22.61
2018-04-19T18:05:28.822Z,22.58
2018-04-19T18:07:56.382Z,22.49
2018-04-19T18:10:23.962Z,22.37
2018-04-19T18:12:51.540Z,22.28
2018-04-19T18:15:19.101Z,22.20
2018-04-19T18:17:46.756Z,22.19
2018-04-19T18:20:14.810Z,22.13
2018-04-19T18:22:42.375Z,22.06
2018-04-19T18:25:10.312Z,21.98
2018-04-19T18:27:37.901Z,21.95
2018-04-19T18:30:05.485Z,21.91
2018-04-19T18:32:33.045Z,21.86
2018-04-19T18:35:00.824Z,21.74
2018-04-19T18:37:28.430Z,21.51
2018-04-19T18:39:56.009Z,21.34
2018-04-19T18:42:23.637Z,21.40
2018-04-19T18:44:51.233Z,21.43
2018-04-19T18:47:18.796Z,21.26
2018-04-19T18:49:46.414Z,21.27
2018-04-19T18:52:13.985Z,21.24
2018-04-19T18:54:41.553Z,21.21
2018-04-19T18:57:09.128Z,21.16
2018-04-19T18:59:36.694Z,21.10
2018-04-19T19:02:04.273Z,21.06
2018-04-19T19:04:31.864Z,20.99
2018-04-19T19:06:59.474Z,20.92
2018-04-19T19:09:27.128Z,20.91
2018-04-19T19:11:54.816Z,20.85
2018-04-19T19:14:22.399Z,20.79
2018-04-19T19:16:50.080Z,20.79
2018-04-19T19:19:36.679Z,20.68
2018-04-19T19:22:04.304Z,20.61
2018-04-19T19:24:32.181Z,20.51
2018-04-19T19:26:59.852Z,20.44
2018-04-19T19:29:27.721Z,20.34
2018-04-19T19:31:55.810Z,20.19
2018-04-19T19:34:23.875Z,20.10
2018-04-19T19:36:51.715Z,20.01
2018-04-19T19:39:19.342Z,19.88
2018-04-19T19:41:47.274Z,19.79
2018-04-19T19:44:15.222Z,19.60
2018-04-19T19:46:43.093Z,19.48
2018-04-19T19:49:10.698Z,19.47
2018-04-19T19:51:38.289Z,19.38
2018-04-19T19:54:05.863Z,19.35
2018-04-19T19:56:33.634Z,19.31
2018-04-19T19:59:01.219Z,19.25
2018-04-19T20:01:29.320Z,19.19
2018-04-19T20:03:58.002Z,19.06
2018-04-19T20:06:25.556Z,18.96
2018-04-19T20:08:53.146Z,18.95
2018-04-19T20:11:20.832Z,18.81
2018-04-19T20:19:40.341Z,18.68
2018-04-19T20:22:07.903Z,18.58
2018-04-19T20:24:35.479Z,18.58
2018-04-19T20:27:03.324Z,18.54
2018-04-19T20:29:30.976Z,18.52
2018-04-19T20:31:58.566Z,18.49
2018-04-19T20:34:26.148Z,18.44
2018-04-19T20:36:53.737Z,18.35
2018-04-19T20:39:21.377Z,18.32
2018-04-19T20:41:48.998Z,18.24
2018-04-19T20:44:16.596Z,18.17
2018-04-19T20:46:44.146Z,18.08
2018-04-19T20:49:11.721Z,18.05
2018-04-19T20:51:39.293Z,17.91
2018-04-19T20:54:06.851Z,17.89
2018-04-19T20:56:34.427Z,17.84
2018-04-19T20:59:01.993Z,17.69
2018-04-19T21:01:29.696Z,17.56
2018-04-19T21:03:57.280Z,17.40
2018-04-19T21:06:24.836Z,17.33
2018-04-19T21:08:52.442Z,17.39
2018-04-19T21:11:20.198Z,17.21
2018-04-19T21:13:47.785Z,17.27
2018-04-19T21:16:15.326Z,17.16
2018-04-19T21:18:42.890Z,17.11
2018-04-19T21:21:10.459Z,17.06
2018-04-19T21:23:38.070Z,17.04
2018-04-19T21:26:05.637Z,17.09
2018-04-19T21:28:33.208Z,16.96
2018-04-19T21:31:00.800Z,16.94
2018-04-19T21:33:28.376Z,16.84
2018-04-19T21:35:55.979Z,16.71
2018-04-19T21:38:23.549Z,16.72
2018-04-19T21:40:51.138Z,16.72
2018-04-19T21:43:18.704Z,16.71
2018-04-19T21:45:46.280Z,16.69
2018-04-19T21:48:13.823Z,16.69
2018-04-19T21:50:41.380Z,16.75
2018-04-19T21:53:08.952Z,16.74
2018-04-19T21:55:36.503Z,16.69
2018-04-19T21:58:04.054Z,16.72
2018-04-19T22:00:31.603Z,16.74
2018-04-19T22:02:59.181Z,16.72
2018-04-19T22:05:26.772Z,16.72
2018-04-19T22:07:54.335Z,16.73
2018-04-19T22:10:21.889Z,16.70
2018-04-19T22:12:49.457Z,16.69
2018-04-19T22:15:17.016Z,16.68
2018-04-19T22:17:44.589Z,16.69
2018-04-19T22:20:12.141Z,16.62
2018-04-19T22:22:39.693Z,16.66
2018-04-19T22:25:07.255Z,16.60
2018-04-19T22:27:34.876Z,16.69
2018-04-19T22:30:02.452Z,16.58
2018-04-19T22:32:30.026Z,16.53
2018-04-19T22:34:57.609Z,16.54
2018-04-19T22:37:25.180Z,16.52
2018-04-19T22:39:52.759Z,16.57
2018-04-19T22:42:20.293Z,16.50
2018-04-19T22:44:47.939Z,16.44
2018-04-19T22:47:15.488Z,16.51
2018-04-19T22:49:43.037Z,16.43
2018-04-19T22:52:10.611Z,16.54
2018-04-19T22:54:38.155Z,16.50
2018-04-19T22:57:05.708Z,16.66
2018-04-19T22:59:33.304Z,16.66
2018-04-19T23:02:00.838Z,16.64
2018-04-19T23:04:28.498Z,16.57
2018-04-19T23:06:56.080Z,16.55
2018-04-19T23:09:23.623Z,16.54
2018-04-19T23:11:51.195Z,16.54
2018-04-19T23:14:18.737Z,16.50
2018-04-19T23:16:46.293Z,16.58
2018-04-19T23:19:13.839Z,16.69
2018-04-19T23:21:41.412Z,16.60
2018-04-19T23:24:08.979Z,16.71
2018-04-19T23:26:36.532Z,16.74
2018-04-19T23:29:04.135Z,16.67
2018-04-19T23:31:31.706Z,16.69
2018-04-19T23:33:59.251Z,16.70
2018-04-19T23:36:26.836Z,16.74
2018-04-19T23:38:54.391Z,16.60
2018-04-19T23:41:21.971Z,16.70
2018-04-19T23:43:49.552Z,16.61
2018-04-19T23:46:17.120Z,16.54
2018-04-19T23:48:44.663Z,16.54
2018-04-19T23:51:12.221Z,16.61
2018-04-19T23:53:39.786Z,16.53
2018-04-19T23:56:07.342Z,16.49
2018-04-19T23:58:34.911Z,16.47
